sensor_id;sensor_type;location;lat;lon;timestamp;P1;durP1;ratioP1;P2;durP2;ratioP2
70169;SDS011;57543;45.442;9.212;2022-10-26T00:02:28;16.77;;;8.10;;
70169;SDS011;57543;45.442;9.212;2022-10-26T00:05:32;19.55;;;8.70;;
70169;SDS011;57543;45.442;9.212;2022-10-26T00:08:36;19.77;;;8.68;;
70169;SDS011;57543;45.442;9.212;2022-10-26T00:11:40;17.30;;;9.30;;
70169;SDS011;57543;45.442;9.212;2022-10-26T00:14:43;17.00;;;8.90;;
70169;SDS011;57543;45.442;9.212;2022-10-26T00:17:47;18.48;;;9.23;;
70169;SDS011;57543;45.442;9.212;2022-10-26T00:20:51;16.98;;;8.63;;
70169;SDS011;57543;45.442;9.212;2022-10-26T00:23:54;17.02;;;8.57;;
70169;SDS011;57543;45.442;9.212;2022-10-26T00:26:58;16.10;;;8.77;;
70169;SDS011;57543;45.442;9.212;2022-10-26T00:30:02;15.03;;;8.30;;
70169;SDS011;57543;45.442;9.212;2022-10-26T00:33:09;17.98;;;7.95;;
70169;SDS011;57543;45.442;9.212;2022-10-26T00:36:15;19.25;;;8.23;;
70169;SDS011;57543;45.442;9.212;2022-10-26T00:39:19;17.08;;;8.02;;
70169;SDS011;57543;45.442;9.212;2022-10-26T00:42:23;16.30;;;7.63;;
70169;SDS011;57543;45.442;9.212;2022-10-26T00:45:27;13.80;;;7.70;;
70169;SDS011;57543;45.442;9.212;2022-10-26T00:48:33;17.80;;;8.50;;
70169;SDS011;57543;45.442;9.212;2022-10-26T00:51:41;17.20;;;8.40;;
70169;SDS011;57543;45.442;9.212;2022-10-26T00:54:51;13.70;;;7.47;;
70169;SDS011;57543;45.442;9.212;2022-10-26T00:57:56;15.32;;;7.93;;
70169;SDS011;57543;45.442;9.212;2022-10-26T01:01:01;17.37;;;8.40;;
70169;SDS011;57543;45.442;9.212;2022-10-26T01:04:05;17.92;;;8.23;;
70169;SDS011;57543;45.442;9.212;2022-10-26T01:07:10;14.82;;;8.00;;
70169;SDS011;57543;45.442;9.212;2022-10-26T01:10:14;15.63;;;8.10;;
70169;SDS011;57543;45.442;9.212;2022-10-26T01:13:19;14.88;;;7.82;;
70169;SDS011;57543;45.442;9.212;2022-10-26T01:19:55;14.32;;;7.57;;
70169;SDS011;57543;45.442;9.212;2022-10-26T01:23:22;14.38;;;7.65;;
70169;SDS011;57543;45.442;9.212;2022-10-26T01:26:46;20.48;;;7.70;;
70169;SDS011;57543;45.442;9.212;2022-10-26T01:33:50;15.63;;;7.57;;
70169;SDS011;57543;45.442;9.212;2022-10-26T01:37:05;15.25;;;6.82;;
70169;SDS011;57543;45.442;9.212;2022-10-26T01:43:23;14.73;;;6.90;;
70169;SDS011;57543;45.442;9.212;2022-10-26T01:46:33;15.88;;;7.95;;
70169;SDS011;57543;45.442;9.212;2022-10-26T01:49:40;14.93;;;7.30;;
70169;SDS011;57543;45.442;9.212;2022-10-26T01:52:48;19.58;;;7.85;;
70169;SDS011;57543;45.442;9.212;2022-10-26T01:55:53;15.50;;;7.88;;
70169;SDS011;57543;45.442;9.212;2022-10-26T01:59:01;16.90;;;6.68;;
70169;SDS011;57543;45.442;9.212;2022-10-26T02:08:53;15.55;;;7.07;;
70169;SDS011;57543;45.442;9.212;2022-10-26T02:11:57;18.45;;;7.60;;
70169;SDS011;57543;45.442;9.212;2022-10-26T02:22:03;15.63;;;6.83;;
70169;SDS011;57543;45.442;9.212;2022-10-26T02:25:10;15.98;;;7.30;;
70169;SDS011;57543;45.442;9.212;2022-10-26T02:28:21;12.98;;;6.63;;
70169;SDS011;57543;45.442;9.212;2022-10-26T02:31:30;12.80;;;6.57;;
70169;SDS011;57543;45.442;9.212;2022-10-26T02:34:36;13.68;;;6.70;;
70169;SDS011;57543;45.442;9.212;2022-10-26T02:37:41;14.17;;;7.03;;
70169;SDS011;57543;45.442;9.212;2022-10-26T02:40:47;14.50;;;6.80;;
70169;SDS011;57543;45.442;9.212;2022-10-26T02:43:59;15.20;;;7.00;;
70169;SDS011;57543;45.442;9.212;2022-10-26T02:47:08;15.93;;;7.18;;
70169;SDS011;57543;45.442;9.212;2022-10-26T02:50:11;12.55;;;6.25;;
70169;SDS011;57543;45.442;9.212;2022-10-26T02:53:23;13.73;;;6.20;;
70169;SDS011;57543;45.442;9.212;2022-10-26T02:56:34;15.50;;;7.10;;
70169;SDS011;57543;45.442;9.212;2022-10-26T02:59:45;15.18;;;6.93;;
70169;SDS011;57543;45.442;9.212;2022-10-26T03:02:51;14.25;;;7.15;;
70169;SDS011;57543;45.442;9.212;2022-10-26T03:05:56;12.07;;;6.05;;
70169;SDS011;57543;45.442;9.212;2022-10-26T03:09:00;13.70;;;6.77;;
70169;SDS011;57543;45.442;9.212;2022-10-26T03:12:04;15.63;;;6.60;;
70169;SDS011;57543;45.442;9.212;2022-10-26T03:15:07;16.55;;;6.90;;
70169;SDS011;57543;45.442;9.212;2022-10-26T03:18:11;14.27;;;6.25;;
70169;SDS011;57543;45.442;9.212;2022-10-26T03:21:15;17.33;;;7.20;;
70169;SDS011;57543;45.442;9.212;2022-10-26T03:24:18;15.70;;;7.03;;
70169;SDS011;57543;45.442;9.212;2022-10-26T03:27:22;16.52;;;7.47;;
70169;SDS011;57543;45.442;9.212;2022-10-26T03:30:25;17.48;;;7.45;;
70169;SDS011;57543;45.442;9.212;2022-10-26T03:33:30;19.15;;;7.40;;
70169;SDS011;57543;45.442;9.212;2022-10-26T03:36:33;17.10;;;8.10;;
70169;SDS011;57543;45.442;9.212;2022-10-26T03:39:37;15.13;;;7.53;;
70169;SDS011;57543;45.442;9.212;2022-10-26T03:42:41;21.60;;;7.93;;
70169;SDS011;57543;45.442;9.212;2022-10-26T03:45:45;15.40;;;7.80;;
70169;SDS011;57543;45.442;9.212;2022-10-26T03:48:49;18.30;;;8.15;;
70169;SDS011;57543;45.442;9.212;2022-10-26T03:51:52;17.40;;;8.80;;
70169;SDS011;57543;45.442;9.212;2022-10-26T03:54:56;17.60;;;7.80;;
70169;SDS011;57543;45.442;9.212;2022-10-26T03:57:59;15.38;;;7.55;;
70169;SDS011;57543;45.442;9.212;2022-10-26T04:01:03;18.23;;;8.00;;
70169;SDS011;57543;45.442;9.212;2022-10-26T04:04:06;19.00;;;7.45;;
70169;SDS011;57543;45.442;9.212;2022-10-26T04:07:10;14.77;;;7.32;;
70169;SDS011;57543;45.442;9.212;2022-10-26T04:10:13;16.13;;;7.43;;
70169;SDS011;57543;45.442;9.212;2022-10-26T04:13:17;12.13;;;6.70;;
70169;SDS011;57543;45.442;9.212;2022-10-26T04:16:21;14.40;;;7.45;;
70169;SDS011;57543;45.442;9.212;2022-10-26T04:19:24;14.30;;;6.93;;
70169;SDS011;57543;45.442;9.212;2022-10-26T04:22:28;16.55;;;6.90;;
70169;SDS011;57543;45.442;9.212;2022-10-26T04:25:32;13.97;;;6.83;;
70169;SDS011;57543;45.442;9.212;2022-10-26T04:28:36;14.95;;;7.05;;
70169;SDS011;57543;45.442;9.212;2022-10-26T04:31:39;15.52;;;7.10;;
70169;SDS011;57543;45.442;9.212;2022-10-26T04:34:44;14.68;;;6.65;;
70169;SDS011;57543;45.442;9.212;2022-10-26T04:37:48;17.25;;;7.68;;
70169;SDS011;57543;45.442;9.212;2022-10-26T04:40:52;15.33;;;7.40;;
70169;SDS011;57543;45.442;9.212;2022-10-26T04:43:55;14.18;;;7.18;;
70169;SDS011;57543;45.442;9.212;2022-10-26T04:46:59;13.00;;;6.35;;
70169;SDS011;57543;45.442;9.212;2022-10-26T04:50:03;13.45;;;7.07;;
70169;SDS011;57543;45.442;9.212;2022-10-26T04:53:08;14.43;;;6.35;;
70169;SDS011;57543;45.442;9.212;2022-10-26T04:56:12;16.10;;;6.57;;
70169;SDS011;57543;45.442;9.212;2022-10-26T04:59:16;13.82;;;6.25;;
70169;SDS011;57543;45.442;9.212;2022-10-26T05:02:20;10.70;;;6.25;;
70169;SDS011;57543;45.442;9.212;2022-10-26T05:05:23;13.52;;;6.45;;
70169;SDS011;57543;45.442;9.212;2022-10-26T05:08:27;12.20;;;6.35;;
70169;SDS011;57543;45.442;9.212;2022-10-26T05:11:31;12.03;;;6.27;;
70169;SDS011;57543;45.442;9.212;2022-10-26T05:14:35;14.07;;;5.95;;
70169;SDS011;57543;45.442;9.212;2022-10-26T05:17:39;12.27;;;6.15;;
70169;SDS011;57543;45.442;9.212;2022-10-26T05:20:43;13.35;;;6.03;;
70169;SDS011;57543;45.442;9.212;2022-10-26T05:23:50;12.18;;;6.57;;
70169;SDS011;57543;45.442;9.212;2022-10-26T05:26:55;13.00;;;6.00;;
70169;SDS011;57543;45.442;9.212;2022-10-26T05:29:59;14.40;;;6.63;;
70169;SDS011;57543;45.442;9.212;2022-10-26T05:33:02;13.60;;;5.80;;
70169;SDS011;57543;45.442;9.212;2022-10-26T05:36:06;13.70;;;6.60;;
70169;SDS011;57543;45.442;9.212;2022-10-26T05:39:10;13.55;;;6.30;;
70169;SDS011;57543;45.442;9.212;2022-10-26T05:42:13;13.03;;;6.07;;
70169;SDS011;57543;45.442;9.212;2022-10-26T05:45:18;11.63;;;6.10;;
70169;SDS011;57543;45.442;9.212;2022-10-26T05:48:22;12.05;;;6.45;;
70169;SDS011;57543;45.442;9.212;2022-10-26T05:51:26;11.90;;;6.13;;
70169;SDS011;57543;45.442;9.212;2022-10-26T05:54:29;15.52;;;6.07;;
70169;SDS011;57543;45.442;9.212;2022-10-26T05:57:33;12.73;;;6.20;;
70169;SDS011;57543;45.442;9.212;2022-10-26T06:00:39;11.93;;;6.40;;
70169;SDS011;57543;45.442;9.212;2022-10-26T06:07:09;13.30;;;6.10;;
70169;SDS011;57543;45.442;9.212;2022-10-26T06:10:15;17.20;;;7.20;;
70169;SDS011;57543;45.442;9.212;2022-10-26T06:13:19;14.33;;;6.83;;
70169;SDS011;57543;45.442;9.212;2022-10-26T06:32:56;15.38;;;6.53;;
70169;SDS011;57543;45.442;9.212;2022-10-26T06:36:04;14.05;;;7.07;;
70169;SDS011;57543;45.442;9.212;2022-10-26T06:39:09;15.25;;;6.45;;
70169;SDS011;57543;45.442;9.212;2022-10-26T06:42:14;16.05;;;6.85;;
70169;SDS011;57543;45.442;9.212;2022-10-26T06:45:18;16.27;;;7.10;;
70169;SDS011;57543;45.442;9.212;2022-10-26T06:48:23;14.52;;;7.00;;
70169;SDS011;57543;45.442;9.212;2022-10-26T06:51:32;14.57;;;6.82;;
70169;SDS011;57543;45.442;9.212;2022-10-26T06:55:01;17.38;;;6.97;;
70169;SDS011;57543;45.442;9.212;2022-10-26T06:58:06;15.45;;;6.95;;
70169;SDS011;57543;45.442;9.212;2022-10-26T07:01:13;13.87;;;6.33;;
70169;SDS011;57543;45.442;9.212;2022-10-26T07:04:17;15.43;;;7.20;;
70169;SDS011;57543;45.442;9.212;2022-10-26T07:07:21;17.50;;;7.07;;
70169;SDS011;57543;45.442;9.212;2022-10-26T07:10:28;15.70;;;6.43;;
70169;SDS011;57543;45.442;9.212;2022-10-26T07:13:31;11.63;;;6.65;;
70169;SDS011;57543;45.442;9.212;2022-10-26T07:16:34;18.20;;;8.00;;
70169;SDS011;57543;45.442;9.212;2022-10-26T07:19:38;15.15;;;6.75;;
70169;SDS011;57543;45.442;9.212;2022-10-26T07:22:42;15.90;;;7.30;;
70169;SDS011;57543;45.442;9.212;2022-10-26T07:25:46;20.10;;;7.85;;
70169;SDS011;57543;45.442;9.212;2022-10-26T07:28:50;19.42;;;7.75;;
70169;SDS011;57543;45.442;9.212;2022-10-26T07:31:54;16.40;;;7.90;;
70169;SDS011;57543;45.442;9.212;2022-10-26T07:34:57;15.25;;;7.25;;
70169;SDS011;57543;45.442;9.212;2022-10-26T07:38:01;14.63;;;6.93;;
70169;SDS011;57543;45.442;9.212;2022-10-26T07:41:05;12.70;;;7.10;;
70169;SDS011;57543;45.442;9.212;2022-10-26T07:44:09;18.42;;;8.07;;
70169;SDS011;57543;45.442;9.212;2022-10-26T07:47:12;17.90;;;7.77;;
70169;SDS011;57543;45.442;9.212;2022-10-26T07:50:16;18.00;;;7.53;;
70169;SDS011;57543;45.442;9.212;2022-10-26T07:53:20;17.95;;;7.05;;
70169;SDS011;57543;45.442;9.212;2022-10-26T07:56:23;18.10;;;8.55;;
70169;SDS011;57543;45.442;9.212;2022-10-26T07:59:27;19.10;;;8.65;;
70169;SDS011;57543;45.442;9.212;2022-10-26T08:02:31;21.30;;;8.57;;
70169;SDS011;57543;45.442;9.212;2022-10-26T08:05:35;20.23;;;8.63;;
70169;SDS011;57543;45.442;9.212;2022-10-26T08:08:38;16.98;;;8.00;;
70169;SDS011;57543;45.442;9.212;2022-10-26T08:11:42;17.15;;;7.75;;
70169;SDS011;57543;45.442;9.212;2022-10-26T08:14:45;19.27;;;8.65;;
70169;SDS011;57543;45.442;9.212;2022-10-26T08:17:49;18.17;;;8.20;;
70169;SDS011;57543;45.442;9.212;2022-10-26T08:20:52;24.27;;;9.35;;
70169;SDS011;57543;45.442;9.212;2022-10-26T08:23:56;17.67;;;8.93;;
70169;SDS011;57543;45.442;9.212;2022-10-26T08:26:59;16.33;;;7.53;;
70169;SDS011;57543;45.442;9.212;2022-10-26T08:30:03;17.88;;;8.50;;
70169;SDS011;57543;45.442;9.212;2022-10-26T08:33:07;27.80;;;15.17;;
70169;SDS011;57543;45.442;9.212;2022-10-26T08:36:12;21.23;;;11.35;;
70169;SDS011;57543;45.442;9.212;2022-10-26T08:39:22;20.52;;;9.02;;
70169;SDS011;57543;45.442;9.212;2022-10-26T08:42:27;17.38;;;8.35;;
70169;SDS011;57543;45.442;9.212;2022-10-26T08:45:54;13.38;;;7.22;;
70169;SDS011;57543;45.442;9.212;2022-10-26T08:49:03;20.27;;;8.33;;
70169;SDS011;57543;45.442;9.212;2022-10-26T08:52:18;16.13;;;7.85;;
70169;SDS011;57543;45.442;9.212;2022-10-26T08:55:44;17.52;;;7.78;;
70169;SDS011;57543;45.442;9.212;2022-10-26T08:58:53;17.23;;;8.55;;
70169;SDS011;57543;45.442;9.212;2022-10-26T09:01:59;18.15;;;7.72;;
70169;SDS011;57543;45.442;9.212;2022-10-26T09:05:11;16.07;;;8.50;;
70169;SDS011;57543;45.442;9.212;2022-10-26T09:08:26;18.00;;;7.85;;
70169;SDS011;57543;45.442;9.212;2022-10-26T09:11:48;20.85;;;7.90;;
70169;SDS011;57543;45.442;9.212;2022-10-26T09:15:20;19.90;;;8.48;;
70169;SDS011;57543;45.442;9.212;2022-10-26T09:22:11;19.23;;;9.37;;
70169;SDS011;57543;45.442;9.212;2022-10-26T09:25:25;18.95;;;9.38;;
70169;SDS011;57543;45.442;9.212;2022-10-26T09:28:33;18.95;;;8.52;;
70169;SDS011;57543;45.442;9.212;2022-10-26T09:31:40;21.70;;;8.50;;
70169;SDS011;57543;45.442;9.212;2022-10-26T09:38:03;21.27;;;9.60;;
70169;SDS011;57543;45.442;9.212;2022-10-26T09:41:16;16.80;;;9.25;;
70169;SDS011;57543;45.442;9.212;2022-10-26T09:44:27;18.55;;;8.45;;
70169;SDS011;57543;45.442;9.212;2022-10-26T09:47:37;22.67;;;9.60;;
70169;SDS011;57543;45.442;9.212;2022-10-26T09:50:43;21.48;;;9.93;;
70169;SDS011;57543;45.442;9.212;2022-10-26T09:53:50;26.13;;;10.47;;
70169;SDS011;57543;45.442;9.212;2022-10-26T09:56:54;20.10;;;9.50;;
70169;SDS011;57543;45.442;9.212;2022-10-26T10:00:02;23.85;;;9.30;;
70169;SDS011;57543;45.442;9.212;2022-10-26T10:03:23;20.00;;;9.07;;
70169;SDS011;57543;45.442;9.212;2022-10-26T10:06:29;25.60;;;10.88;;
70169;SDS011;57543;45.442;9.212;2022-10-26T10:09:32;21.80;;;9.87;;
70169;SDS011;57543;45.442;9.212;2022-10-26T10:12:36;21.40;;;9.40;;
70169;SDS011;57543;45.442;9.212;2022-10-26T10:15:49;24.23;;;10.65;;
70169;SDS011;57543;45.442;9.212;2022-10-26T10:18:58;20.23;;;10.35;;
70169;SDS011;57543;45.442;9.212;2022-10-26T10:25:21;27.80;;;10.43;;
70169;SDS011;57543;45.442;9.212;2022-10-26T10:28:35;21.48;;;9.50;;
70169;SDS011;57543;45.442;9.212;2022-10-26T10:31:39;22.63;;;10.32;;
70169;SDS011;57543;45.442;9.212;2022-10-26T10:34:45;25.33;;;11.00;;
70169;SDS011;57543;45.442;9.212;2022-10-26T10:37:49;27.73;;;12.00;;
70169;SDS011;57543;45.442;9.212;2022-10-26T10:40:57;20.00;;;9.93;;
70169;SDS011;57543;45.442;9.212;2022-10-26T10:44:44;21.45;;;10.40;;
70169;SDS011;57543;45.442;9.212;2022-10-26T10:47:34;25.80;;;10.73;;
70169;SDS011;57543;45.442;9.212;2022-10-26T10:50:49;24.83;;;11.73;;
70169;SDS011;57543;45.442;9.212;2022-10-26T10:53:53;25.75;;;11.55;;
70169;SDS011;57543;45.442;9.212;2022-10-26T10:57:02;31.37;;;14.33;;
70169;SDS011;57543;45.442;9.212;2022-10-26T11:00:11;33.50;;;13.60;;
70169;SDS011;57543;45.442;9.212;2022-10-26T11:06:40;28.17;;;13.55;;
70169;SDS011;57543;45.442;9.212;2022-10-26T11:09:45;23.27;;;11.55;;
70169;SDS011;57543;45.442;9.212;2022-10-26T11:12:58;24.93;;;11.63;;
70169;SDS011;57543;45.442;9.212;2022-10-26T11:16:20;24.48;;;11.00;;
70169;SDS011;57543;45.442;9.212;2022-10-26T11:19:37;26.48;;;12.40;;
70169;SDS011;57543;45.442;9.212;2022-10-26T11:23:01;25.15;;;11.43;;
70169;SDS011;57543;45.442;9.212;2022-10-26T11:26:12;30.80;;;13.07;;
70169;SDS011;57543;45.442;9.212;2022-10-26T11:32:52;27.63;;;13.68;;
70169;SDS011;57543;45.442;9.212;2022-10-26T11:36:04;23.70;;;12.60;;
70169;SDS011;57543;45.442;9.212;2022-10-26T11:39:19;25.92;;;13.02;;
70169;SDS011;57543;45.442;9.212;2022-10-26T11:42:35;27.35;;;13.63;;
70169;SDS011;57543;45.442;9.212;2022-10-26T11:46:30;25.37;;;12.73;;
70169;SDS011;57543;45.442;9.212;2022-10-26T11:49:27;26.08;;;12.18;;
70169;SDS011;57543;45.442;9.212;2022-10-26T11:52:38;25.83;;;12.60;;
70169;SDS011;57543;45.442;9.212;2022-10-26T11:55:51;27.55;;;13.70;;
70169;SDS011;57543;45.442;9.212;2022-10-26T11:58:56;28.83;;;14.82;;
70169;SDS011;57543;45.442;9.212;2022-10-26T12:02:04;26.77;;;12.70;;
70169;SDS011;57543;45.442;9.212;2022-10-26T12:15:13;27.77;;;12.65;;
70169;SDS011;57543;45.442;9.212;2022-10-26T12:18:36;30.07;;;12.07;;
70169;SDS011;57543;45.442;9.212;2022-10-26T12:21:40;24.23;;;12.40;;
70169;SDS011;57543;45.442;9.212;2022-10-26T12:25:03;31.00;;;14.23;;
70169;SDS011;57543;45.442;9.212;2022-10-26T12:31:45;26.80;;;13.18;;
70169;SDS011;57543;45.442;9.212;2022-10-26T12:37:53;24.80;;;11.35;;
70169;SDS011;57543;45.442;9.212;2022-10-26T12:44:30;23.10;;;11.32;;
70169;SDS011;57543;45.442;9.212;2022-10-26T12:50:50;28.70;;;12.83;;
70169;SDS011;57543;45.442;9.212;2022-10-26T12:57:30;27.23;;;12.90;;
70169;SDS011;57543;45.442;9.212;2022-10-26T13:07:34;18.92;;;9.00;;
70169;SDS011;57543;45.442;9.212;2022-10-26T13:10:58;21.92;;;10.57;;
70169;SDS011;57543;45.442;9.212;2022-10-26T13:17:31;20.42;;;9.13;;
70169;SDS011;57543;45.442;9.212;2022-10-26T13:20:36;20.27;;;9.27;;
70169;SDS011;57543;45.442;9.212;2022-10-26T13:24:02;21.90;;;9.73;;
70169;SDS011;57543;45.442;9.212;2022-10-26T13:30:33;22.63;;;9.57;;
70169;SDS011;57543;45.442;9.212;2022-10-26T13:33:44;24.75;;;10.18;;
70169;SDS011;57543;45.442;9.212;2022-10-26T13:40:18;26.00;;;10.73;;
70169;SDS011;57543;45.442;9.212;2022-10-26T13:43:24;20.42;;;8.82;;
70169;SDS011;57543;45.442;9.212;2022-10-26T13:46:30;18.60;;;8.85;;
70169;SDS011;57543;45.442;9.212;2022-10-26T13:49:40;22.70;;;10.07;;
70169;SDS011;57543;45.442;9.212;2022-10-26T13:52:48;26.02;;;11.05;;
70169;SDS011;57543;45.442;9.212;2022-10-26T13:56:32;18.40;;;8.67;;
70169;SDS011;57543;45.442;9.212;2022-10-26T13:59:40;22.55;;;10.65;;
70169;SDS011;57543;45.442;9.212;2022-10-26T14:02:45;22.75;;;9.43;;
70169;SDS011;57543;45.442;9.212;2022-10-26T14:05:49;20.55;;;9.98;;
70169;SDS011;57543;45.442;9.212;2022-10-26T14:08:54;21.52;;;10.00;;
70169;SDS011;57543;45.442;9.212;2022-10-26T14:12:00;19.77;;;8.73;;
70169;SDS011;57543;45.442;9.212;2022-10-26T14:15:05;18.95;;;8.70;;
70169;SDS011;57543;45.442;9.212;2022-10-26T14:18:13;19.75;;;8.65;;
70169;SDS011;57543;45.442;9.212;2022-10-26T14:21:21;22.13;;;8.32;;
70169;SDS011;57543;45.442;9.212;2022-10-26T14:24:29;19.25;;;9.50;;
70169;SDS011;57543;45.442;9.212;2022-10-26T14:27:37;18.63;;;8.70;;
70169;SDS011;57543;45.442;9.212;2022-10-26T14:30:41;27.83;;;11.77;;
70169;SDS011;57543;45.442;9.212;2022-10-26T14:33:44;18.55;;;8.60;;
70169;SDS011;57543;45.442;9.212;2022-10-26T14:36:49;22.33;;;10.13;;
70169;SDS011;57543;45.442;9.212;2022-10-26T14:39:56;15.90;;;8.43;;
70169;SDS011;57543;45.442;9.212;2022-10-26T14:43:00;15.93;;;7.77;;
70169;SDS011;57543;45.442;9.212;2022-10-26T14:46:11;14.63;;;7.20;;
70169;SDS011;57543;45.442;9.212;2022-10-26T14:49:25;17.65;;;7.90;;
70169;SDS011;57543;45.442;9.212;2022-10-26T14:52:31;17.17;;;7.18;;
70169;SDS011;57543;45.442;9.212;2022-10-26T14:55:47;22.75;;;9.38;;
70169;SDS011;57543;45.442;9.212;2022-10-26T14:58:52;18.77;;;8.23;;
70169;SDS011;57543;45.442;9.212;2022-10-26T15:05:28;17.95;;;7.75;;
70169;SDS011;57543;45.442;9.212;2022-10-26T15:08:39;19.45;;;7.85;;
70169;SDS011;57543;45.442;9.212;2022-10-26T15:11:44;21.95;;;9.32;;
70169;SDS011;57543;45.442;9.212;2022-10-26T15:14:49;20.05;;;8.23;;
70169;SDS011;57543;45.442;9.212;2022-10-26T15:17:54;20.55;;;8.20;;
70169;SDS011;57543;45.442;9.212;2022-10-26T15:20:59;15.68;;;7.03;;
70169;SDS011;57543;45.442;9.212;2022-10-26T15:24:09;15.75;;;6.97;;
70169;SDS011;57543;45.442;9.212;2022-10-26T15:27:28;16.30;;;7.30;;
70169;SDS011;57543;45.442;9.212;2022-10-26T15:30:32;19.23;;;7.37;;
70169;SDS011;57543;45.442;9.212;2022-10-26T15:33:40;20.33;;;8.80;;
70169;SDS011;57543;45.442;9.212;2022-10-26T15:36:45;18.95;;;8.18;;
70169;SDS011;57543;45.442;9.212;2022-10-26T15:39:48;17.58;;;7.75;;
70169;SDS011;57543;45.442;9.212;2022-10-26T15:42:52;16.38;;;7.55;;
70169;SDS011;57543;45.442;9.212;2022-10-26T15:45:57;17.03;;;7.73;;
70169;SDS011;57543;45.442;9.212;2022-10-26T15:49:03;18.50;;;8.05;;
70169;SDS011;57543;45.442;9.212;2022-10-26T15:52:08;17.05;;;7.85;;
70169;SDS011;57543;45.442;9.212;2022-10-26T15:55:12;20.15;;;8.55;;
70169;SDS011;57543;45.442;9.212;2022-10-26T15:58:16;18.85;;;8.10;;
70169;SDS011;57543;45.442;9.212;2022-10-26T16:01:24;17.40;;;8.57;;
70169;SDS011;57543;45.442;9.212;2022-10-26T16:04:30;16.38;;;8.25;;
70169;SDS011;57543;45.442;9.212;2022-10-26T16:07:34;16.52;;;7.80;;
70169;SDS011;57543;45.442;9.212;2022-10-26T16:10:38;17.92;;;7.75;;
70169;SDS011;57543;45.442;9.212;2022-10-26T16:13:41;16.10;;;7.90;;
70169;SDS011;57543;45.442;9.212;2022-10-26T16:16:45;18.17;;;7.77;;
70169;SDS011;57543;45.442;9.212;2022-10-26T16:19:49;16.08;;;7.78;;
70169;SDS011;57543;45.442;9.212;2022-10-26T16:22:52;14.88;;;7.45;;
70169;SDS011;57543;45.442;9.212;2022-10-26T16:25:56;14.82;;;6.95;;
70169;SDS011;57543;45.442;9.212;2022-10-26T16:29:00;14.98;;;6.40;;
70169;SDS011;57543;45.442;9.212;2022-10-26T16:32:03;18.15;;;6.88;;
70169;SDS011;57543;45.442;9.212;2022-10-26T16:35:07;17.38;;;7.22;;
70169;SDS011;57543;45.442;9.212;2022-10-26T16:38:12;16.10;;;7.47;;
70169;SDS011;57543;45.442;9.212;2022-10-26T16:41:16;22.33;;;8.48;;
70169;SDS011;57543;45.442;9.212;2022-10-26T16:44:20;15.98;;;7.93;;
70169;SDS011;57543;45.442;9.212;2022-10-26T16:47:24;18.60;;;8.40;;
70169;SDS011;57543;45.442;9.212;2022-10-26T16:50:28;18.35;;;8.40;;
70169;SDS011;57543;45.442;9.212;2022-10-26T16:53:31;21.13;;;8.95;;
70169;SDS011;57543;45.442;9.212;2022-10-26T16:56:35;20.05;;;8.93;;
70169;SDS011;57543;45.442;9.212;2022-10-26T16:59:39;19.02;;;9.38;;
70169;SDS011;57543;45.442;9.212;2022-10-26T17:02:43;22.17;;;9.90;;
70169;SDS011;57543;45.442;9.212;2022-10-26T17:05:46;20.40;;;9.73;;
70169;SDS011;57543;45.442;9.212;2022-10-26T17:08:55;19.45;;;9.30;;
70169;SDS011;57543;45.442;9.212;2022-10-26T17:11:58;18.30;;;8.57;;
70169;SDS011;57543;45.442;9.212;2022-10-26T17:15:02;16.48;;;9.13;;
70169;SDS011;57543;45.442;9.212;2022-10-26T17:18:06;17.73;;;8.70;;
70169;SDS011;57543;45.442;9.212;2022-10-26T17:21:13;20.23;;;9.02;;
70169;SDS011;57543;45.442;9.212;2022-10-26T17:24:17;20.55;;;9.57;;
70169;SDS011;57543;45.442;9.212;2022-10-26T17:27:21;20.30;;;10.07;;
70169;SDS011;57543;45.442;9.212;2022-10-26T17:30:25;21.60;;;10.32;;
70169;SDS011;57543;45.442;9.212;2022-10-26T17:33:30;18.60;;;9.43;;
70169;SDS011;57543;45.442;9.212;2022-10-26T17:36:35;23.63;;;10.90;;
70169;SDS011;57543;45.442;9.212;2022-10-26T17:39:39;25.48;;;11.70;;
70169;SDS011;57543;45.442;9.212;2022-10-26T17:42:42;19.55;;;10.57;;
70169;SDS011;57543;45.442;9.212;2022-10-26T17:45:46;20.65;;;10.75;;
70169;SDS011;57543;45.442;9.212;2022-10-26T17:48:56;21.63;;;10.83;;
70169;SDS011;57543;45.442;9.212;2022-10-26T17:52:03;25.45;;;11.80;;
70169;SDS011;57543;45.442;9.212;2022-10-26T17:55:08;22.42;;;11.15;;
70169;SDS011;57543;45.442;9.212;2022-10-26T17:58:12;21.60;;;10.38;;
70169;SDS011;57543;45.442;9.212;2022-10-26T18:01:15;23.40;;;11.32;;
70169;SDS011;57543;45.442;9.212;2022-10-26T18:04:19;24.57;;;11.27;;
70169;SDS011;57543;45.442;9.212;2022-10-26T18:07:24;22.60;;;12.07;;
70169;SDS011;57543;45.442;9.212;2022-10-26T18:10:27;24.30;;;11.63;;
70169;SDS011;57543;45.442;9.212;2022-10-26T18:13:31;19.60;;;10.60;;
70169;SDS011;57543;45.442;9.212;2022-10-26T18:16:36;23.70;;;11.95;;
70169;SDS011;57543;45.442;9.212;2022-10-26T18:19:39;22.17;;;12.03;;
70169;SDS011;57543;45.442;9.212;2022-10-26T18:22:43;24.20;;;11.63;;
70169;SDS011;57543;45.442;9.212;2022-10-26T18:25:46;27.38;;;12.65;;
70169;SDS011;57543;45.442;9.212;2022-10-26T18:28:49;25.55;;;13.27;;
70169;SDS011;57543;45.442;9.212;2022-10-26T18:31:53;28.15;;;13.30;;
70169;SDS011;57543;45.442;9.212;2022-10-26T18:34:57;26.17;;;12.80;;
70169;SDS011;57543;45.442;9.212;2022-10-26T18:38:00;27.10;;;13.10;;
70169;SDS011;57543;45.442;9.212;2022-10-26T18:41:04;28.10;;;14.00;;
70169;SDS011;57543;45.442;9.212;2022-10-26T18:44:09;27.95;;;13.80;;
70169;SDS011;57543;45.442;9.212;2022-10-26T18:47:13;27.75;;;13.27;;
70169;SDS011;57543;45.442;9.212;2022-10-26T18:50:17;26.47;;;13.23;;
70169;SDS011;57543;45.442;9.212;2022-10-26T18:53:20;24.48;;;12.18;;
70169;SDS011;57543;45.442;9.212;2022-10-26T18:56:24;26.48;;;13.98;;
70169;SDS011;57543;45.442;9.212;2022-10-26T18:59:29;29.40;;;14.73;;
70169;SDS011;57543;45.442;9.212;2022-10-26T19:02:33;27.52;;;14.38;;
70169;SDS011;57543;45.442;9.212;2022-10-26T19:05:36;28.67;;;14.40;;
70169;SDS011;57543;45.442;9.212;2022-10-26T19:08:43;34.72;;;14.52;;
70169;SDS011;57543;45.442;9.212;2022-10-26T19:11:48;28.63;;;13.82;;
70169;SDS011;57543;45.442;9.212;2022-10-26T19:14:51;32.35;;;14.55;;
70169;SDS011;57543;45.442;9.212;2022-10-26T19:17:54;29.05;;;15.00;;
70169;SDS011;57543;45.442;9.212;2022-10-26T19:21:01;29.33;;;14.10;;
70169;SDS011;57543;45.442;9.212;2022-10-26T19:24:16;29.45;;;14.85;;
70169;SDS011;57543;45.442;9.212;2022-10-26T19:27:22;32.53;;;14.57;;
70169;SDS011;57543;45.442;9.212;2022-10-26T19:30:25;28.75;;;13.70;;
70169;SDS011;57543;45.442;9.212;2022-10-26T19:33:32;29.50;;;14.20;;
70169;SDS011;57543;45.442;9.212;2022-10-26T19:36:36;28.33;;;14.70;;
70169;SDS011;57543;45.442;9.212;2022-10-26T19:39:41;28.40;;;15.27;;
70169;SDS011;57543;45.442;9.212;2022-10-26T19:42:45;32.47;;;14.55;;
70169;SDS011;57543;45.442;9.212;2022-10-26T19:45:49;26.20;;;14.18;;
70169;SDS011;57543;45.442;9.212;2022-10-26T19:48:53;32.50;;;15.07;;
70169;SDS011;57543;45.442;9.212;2022-10-26T19:51:59;30.47;;;15.20;;
70169;SDS011;57543;45.442;9.212;2022-10-26T19:55:04;32.50;;;16.00;;
70169;SDS011;57543;45.442;9.212;2022-10-26T19:58:08;30.50;;;16.58;;
70169;SDS011;57543;45.442;9.212;2022-10-26T20:01:13;31.02;;;15.25;;
70169;SDS011;57543;45.442;9.212;2022-10-26T20:04:17;32.65;;;14.52;;
70169;SDS011;57543;45.442;9.212;2022-10-26T20:07:21;30.63;;;15.00;;
70169;SDS011;57543;45.442;9.212;2022-10-26T20:10:24;36.58;;;15.32;;
70169;SDS011;57543;45.442;9.212;2022-10-26T20:13:28;31.55;;;15.75;;